Maersk Nimes — VRFO7 — position and weather

sailwx.info

Track history (hours):
 
Tides and Currents Weather Stations Pressure Air Temp Water Temp Dewpoint Dewpoint Depression Visibility Wind Speed Wind Dir Waves Ship Positions

Maersk Nimes

Last reported at 2017-Sep-22 15:00 UTC. Time now 2017-Sep-23 13:01 UTC.
Position N 43°30' W 016°54'.

Length 210 m; draft 11.4 m.

Type: Cargo ship. MMSI: 477559200.

Wind from 050 at 36 knots

Barometer 1017.5 mb
Air temperature 21.0 ° C
Visibility: greater than 10.8 NM
Dewpoint 14.2 ° C
Water temperature 18.2 ° C

Date/timePositionNaut miles runAvg speedWind from/ knotsBaromVisibWave heightAir tempDewpointWater temp
2017-Sep-22 15:00N 43°30' W 016°54'21614.4 050 / 361017.510.8 21.014.218.2
2017-Sep-22 00:00N 45°48' W 013°00'41815.8 220 / 221021.010.8 18.012.716.0
2017-Sep-20 21:31N 49°42' W 004°25'013.5
2017-Sep-20 21:30N 49°42' W 004°25'916.1
2017-Sep-20 20:57N 49°45' W 004°12'1015.4
2017-Sep-20 20:19N 49°48' W 003°57'515.3
2017-Sep-20 20:00N 49°49' W 003°50'714.9
2017-Sep-20 19:30N 49°52' W 003°40'714.4
2017-Sep-20 19:00N 49°53' W 003°29'714.4
2017-Sep-20 18:30N 49°55' W 003°18'714.5
2017-Sep-20 18:00N 49°56' W 003°07'714.7
2017-Sep-20 17:30N 49°59' W 002°56'815.5
2017-Sep-20 17:00N 50°01' W 002°44'1916.9
2017-Sep-20 15:52N 50°06' W 002°15'718.5
2017-Sep-20 15:30N 50°08' W 002°05'1019.4
2017-Sep-20 15:00N 50°10' W 001°51'2019.8
2017-Sep-20 14:01N 50°15' W 001°21'1119.8
2017-Sep-20 13:26N 50°19' W 001°04'918.9
2017-Sep-20 12:58N 50°21' W 000°51'918.0
2017-Sep-20 12:28N 50°24' W 000°37'817.5
2017-Sep-20 12:00N 50°26' W 000°25'816.8
2017-Sep-20 11:30N 50°29' W 000°12'816.1
2017-Sep-20 11:01N 50°31' W 000°00'815.6
2017-Sep-20 10:30N 50°33' E 000°12'714.9
2017-Sep-20 10:00N 50°35' E 000°23'714.5
2017-Sep-20 09:30N 50°36' E 000°34'815.1
2017-Sep-20 09:00N 50°41' E 000°44'815.6
2017-Sep-20 08:30N 50°45' E 000°54'816.6
2017-Sep-20 08:01N 50°51' E 001°03'918.2
2017-Sep-20 07:30N 50°58' E 001°13'1019.3
2017-Sep-20 07:00N 51°03' E 001°26'918.5
2017-Sep-20 06:30N 51°08' E 001°38'918.9
2017-Sep-20 06:00N 51°15' E 001°48'918.0
2017-Sep-20 05:30N 51°23' E 001°56'714.4
2017-Sep-20 05:00N 51°23' E 002°07'816.6
2017-Sep-20 04:30N 51°21' E 002°20'816.7
2017-Sep-20 04:01N 51°23' E 002°33'815.3
2017-Sep-20 03:30N 51°22' E 002°45'611.6
2017-Sep-20 03:01N 51°23' E 002°54'714.8
2017-Sep-20 02:31N 51°24' E 003°06'815.5
2017-Sep-20 02:01N 51°24' E 003°18'815.4
2017-Sep-20 01:30N 51°25' E 003°30'510.4
2017-Sep-20 01:00N 51°26' E 003°38'611.1
2017-Sep-20 00:30N 51°22' E 003°44'612.2
2017-Sep-20 00:00N 51°22' E 003°54'612.1
2017-Sep-19 23:31N 51°26' E 004°01'611.8
2017-Sep-19 23:01N 51°22' E 004°08'4 8.2
2017-Sep-19 22:30N 51°21' E 004°14'1 2.5
2017-Sep-19 22:01N 51°21' E 004°16'0 0.0
2017-Sep-19 21:30N 51°21' E 004°16'0 0.0
2017-Sep-19 20:59N 51°21' E 004°16'0 0.0
2017-Sep-19 20:30N 51°21' E 004°16'0 0.0
2017-Sep-19 20:00N 51°21' E 004°16'0 0.0
2017-Sep-19 19:31N 51°21' E 004°16'0 0.0
2017-Sep-19 18:59N 51°21' E 004°16'0 0.0
2017-Sep-19 18:30N 51°21' E 004°16'0 0.0
2017-Sep-19 18:00N 51°21' E 004°16'0 0.0
2017-Sep-19 17:30N 51°21' E 004°16'0 0.0
2017-Sep-19 17:00N 51°21' E 004°16'0 0.0
2017-Sep-19 16:29N 51°21' E 004°16'0 0.0
2017-Sep-19 16:00N 51°21' E 004°16'0 0.0
2017-Sep-19 15:30N 51°21' E 004°16'0 0.0
2017-Sep-19 14:59N 51°21' E 004°16'0 0.0
2017-Sep-19 14:29N 51°21' E 004°16'0 0.0
2017-Sep-19 14:00N 51°21' E 004°16'0 0.0
2017-Sep-19 13:30N 51°21' E 004°16'0 0.0
2017-Sep-19 13:01N 51°21' E 004°16'0 0.0
2017-Sep-19 12:31N 51°21' E 004°16'0 0.0
2017-Sep-19 12:01N 51°21' E 004°16'0 0.0
2017-Sep-19 11:29N 51°21' E 004°16'0 0.0
2017-Sep-19 10:59N 51°21' E 004°16'0 0.0
2017-Sep-19 10:29N 51°21' E 004°16'0 0.0
2017-Sep-19 10:00N 51°21' E 004°16'1 1.8
2017-Sep-19 09:30N 51°21' E 004°15'4 7.7
2017-Sep-19 09:00N 51°22' E 004°09'510.9
2017-Sep-19 08:31N 51°25' E 004°02'713.6
2017-Sep-19 08:00N 51°21' E 003°53'714.4
2017-Sep-19 07:31N 51°24' E 003°43'5 9.8
2017-Sep-19 07:00N 51°26' E 003°35'3 6.1
2017-Sep-19 06:30N 51°25' E 003°30'714.2
2017-Sep-19 06:01N 51°24' E 003°19'815.4
2017-Sep-19 05:30N 51°24' E 003°07'611.5
2017-Sep-19 05:00N 51°28' E 003°01'918.6
2017-Sep-19 04:30N 51°36' E 003°10'816.5
2017-Sep-19 04:00N 51°44' E 003°13'4 7.1
2017-Sep-19 03:31N 51°47' E 003°15'510.2
2017-Sep-19 02:59N 51°52' E 003°18'510.8
2017-Sep-19 02:30N 51°57' E 003°20'510.6
2017-Sep-19 01:59N 52°02' E 003°23'611.4
2017-Sep-19 01:29N 52°04' E 003°32'511.4
2017-Sep-19 01:00N 52°04' E 003°41'510.9
2017-Sep-19 00:30N 52°04' E 003°50'3 6.5
2017-Sep-19 00:00N 52°02' E 003°54'4 7.6
2017-Sep-18 23:30N 52°01' E 003°59'5 9.3
2017-Sep-18 23:00N 51°58' E 004°05'3 5.8
2017-Sep-18 22:30N 51°59' E 004°01'1 2.6
2017-Sep-18 21:58N 51°57' E 004°00'0 0.1
2017-Sep-18 21:28N 51°57' E 004°00'0 0.0
2017-Sep-18 20:58N 51°57' E 004°00'0 0.0
2017-Sep-18 20:28N 51°57' E 004°00'0 0.0
2017-Sep-18 19:55N 51°57' E 004°00'0 0.0
2017-Sep-18 19:28N 51°57' E 004°00'0 0.0
2017-Sep-18 18:58N 51°57' E 004°00'0 0.0
2017-Sep-18 18:28N 51°57' E 004°00'0 0.1
2017-Sep-18 17:58N 51°57' E 004°00'0 0.1
2017-Sep-18 17:28N 51°57' E 004°00'0 0.0
2017-Sep-18 16:58N 51°57' E 004°00'0 0.0
2017-Sep-18 16:28N 51°57' E 004°00'0 0.0
2017-Sep-18 15:58N 51°57' E 004°00'0 0.0
2017-Sep-18 15:28N 51°57' E 004°00'0 0.0
2017-Sep-18 14:58N 51°57' E 004°00'0 0.0
2017-Sep-18 14:28N 51°57' E 004°00'0 0.1
2017-Sep-18 14:00N 51°57' E 004°00'1 2.2
2017-Sep-18 13:30N 51°58' E 003°60'3 6.6
2017-Sep-18 13:00N 51°58' E 004°05'611.6
2017-Sep-18 12:30N 52°01' E 003°57'510.7
2017-Sep-18 12:00N 52°01' E 003°48'611.3
2017-Sep-18 11:30N 52°06' E 003°47'611.2
2017-Sep-18 11:00N 52°12' E 003°44'1 1.2
2017-Sep-18 10:30N 52°12' E 003°43'2 3.3
2017-Sep-18 10:00N 52°13' E 003°46'714.7
2017-Sep-18 09:30N 52°20' E 003°48'1121.3
2017-Sep-18 09:00N 52°30' E 003°51'1121.7
2017-Sep-18 08:30N 52°41' E 003°55'1421.7
2017-Sep-18 07:52N 52°55' E 003°59'1720.9
2017-Sep-18 07:02N 53°07' E 004°20'121.3
2017-Sep-18 07:00N 53°07' E 004°21'1720.7
2017-Sep-18 06:10N 53°23' E 004°33'320.5
2017-Sep-18 06:00N 53°26' E 004°35'918.5
2017-Sep-18 05:30N 53°31' E 004°48'1019.6
2017-Sep-18 05:00N 53°34' E 005°04'1019.4
2017-Sep-18 04:30N 53°37' E 005°19'1019.4
2017-Sep-18 04:00N 53°41' E 005°35'7620.5
2017-Sep-18 00:16N 53°58' E 007°41'520.0
2017-Sep-18 00:00N 53°54' E 007°45'815.0
2017-Sep-17 23:30N 53°52' E 007°57'918.1
2017-Sep-17 23:00N 53°46' E 008°10'918.6
2017-Sep-17 22:30N 53°40' E 008°22'714.0
2017-Sep-17 22:00N 53°36' E 008°31'0 0.7
2017-Sep-17 21:29N 53°36' E 008°31'0 0.0
2017-Sep-17 20:59N 53°36' E 008°31'0 0.0
2017-Sep-17 20:29N 53°36' E 008°31'0 0.0
2017-Sep-17 19:59N 53°36' E 008°31'0 0.0
2017-Sep-17 19:29N 53°36' E 008°31'0 0.0
2017-Sep-17 19:01N 53°36' E 008°31'0 0.0
2017-Sep-17 18:30N 53°36' E 008°31'0 0.0
2017-Sep-17 17:57N 53°36' E 008°31'0 0.0
2017-Sep-17 17:30N 53°36' E 008°31'0 0.0
2017-Sep-17 16:57N 53°36' E 008°31'0 0.0
2017-Sep-17 16:30N 53°36' E 008°31'0 0.0
2017-Sep-17 15:57N 53°36' E 008°31'0 0.0
2017-Sep-17 15:30N 53°36' E 008°31'0 0.0
2017-Sep-17 15:00N 53°36' E 008°31'0 0.0
2017-Sep-17 14:30N 53°36' E 008°31'0 0.0
2017-Sep-17 14:00N 53°36' E 008°31'0 0.0
2017-Sep-17 13:30N 53°36' E 008°31'0 0.0
2017-Sep-17 13:00N 53°36' E 008°31'0 0.0
2017-Sep-17 12:30N 53°36' E 008°31'0 0.1
2017-Sep-17 12:00N 53°35' E 008°31'0 0.0
2017-Sep-17 11:30N 53°36' E 008°31'0 0.0
2017-Sep-17 11:00N 53°36' E 008°31'0 0.0
2017-Sep-17 10:30N 53°36' E 008°31'0 0.0
2017-Sep-17 10:00N 53°36' E 008°31'0 0.0
2017-Sep-17 09:30N 53°36' E 008°31'0 0.0
2017-Sep-17 09:00N 53°36' E 008°31'0 0.0
2017-Sep-17 08:30N 53°36' E 008°31'0 0.0
2017-Sep-17 08:00N 53°36' E 008°31'0 0.0
2017-Sep-17 07:30N 53°36' E 008°31'0 0.0
2017-Sep-17 07:00N 53°36' E 008°31'0 0.0
2017-Sep-17 06:30N 53°36' E 008°31'0 0.0
2017-Sep-17 06:00N 53°36' E 008°31'0 0.0
2017-Sep-17 05:30N 53°36' E 008°31'0 0.0
2017-Sep-17 05:00N 53°36' E 008°31'0 0.0
2017-Sep-17 04:30N 53°36' E 008°31'0 0.0
2017-Sep-17 04:00N 53°36' E 008°31'0 0.0
2017-Sep-17 03:30N 53°36' E 008°31'0 0.0
2017-Sep-17 03:00N 53°36' E 008°31'0 0.0
2017-Sep-17 02:30N 53°36' E 008°31'0 0.0
2017-Sep-17 02:00N 53°36' E 008°31'0 0.0
2017-Sep-17 01:30N 53°36' E 008°31'0 0.0
2017-Sep-17 01:00N 53°36' E 008°31'0 0.0
2017-Sep-17 00:30N 53°36' E 008°31'0 0.0
2017-Sep-17 00:00N 53°36' E 008°31'0 0.0
2017-Sep-16 23:30N 53°36' E 008°31'0 0.0
2017-Sep-16 23:00N 53°36' E 008°31'0 0.0
2017-Sep-16 22:30N 53°36' E 008°31'0 0.9
2017-Sep-16 22:00N 53°36' E 008°31'5 9.8
2017-Sep-16 21:30N 53°39' E 008°24'815.0
2017-Sep-16 21:00N 53°44' E 008°15'612.9
2017-Sep-16 20:30N 53°49' E 008°07'715.0
2017-Sep-16 20:00N 53°51' E 007°56'612.6
2017-Sep-16 19:30N 53°53' E 007°45'2 4.3
2017-Sep-16 19:00N 53°55' E 007°46'0 0.3
2017-Sep-16 18:28N 53°55' E 007°46'0 0.1
2017-Sep-16 17:55N 53°55' E 007°46'0 0.0
2017-Sep-16 17:28N 53°55' E 007°46'0 0.0
2017-Sep-16 16:58N 53°55' E 007°46'0 0.0
2017-Sep-16 16:28N 53°55' E 007°46'0 0.0
2017-Sep-16 15:58N 53°55' E 007°46'0 0.1
2017-Sep-16 15:25N 53°55' E 007°46'0 0.1
2017-Sep-16 14:58N 53°55' E 007°46'0 0.0
2017-Sep-16 14:28N 53°55' E 007°46'0 0.0
2017-Sep-16 13:58N 53°55' E 007°46'0 0.0
2017-Sep-16 13:28N 53°55' E 007°46'0 0.1
2017-Sep-16 10:58N 53°55' E 007°46'0 0.1
2017-Sep-16 10:16N 53°55' E 007°46'56 3.6
2017-Sep-15 18:32N 54°43' E 006°57'011.5
2017-Sep-15 18:30N 54°43' E 006°57'611.4
2017-Sep-15 17:59N 54°47' E 006°49'611.7
2017-Sep-15 17:30N 54°51' E 006°42'611.8
2017-Sep-15 17:00N 54°55' E 006°34'611.2
2017-Sep-15 16:30N 55°01' E 006°33'611.6
2017-Sep-15 16:00N 55°06' E 006°33'611.7
2017-Sep-15 15:31N 55°12' E 006°33'611.6
2017-Sep-15 15:00N 55°18' E 006°34'611.7
2017-Sep-15 14:30N 55°24' E 006°34'611.8
2017-Sep-15 14:00N 55°30' E 006°35'15810.2
2017-Sep-14 22:32N 57°43' E 009°10'010.9
2017-Sep-14 22:30N 57°43' E 009°11'3511.2
2017-Sep-14 19:23N 57°50' E 010°15'510.6
2017-Sep-14 18:58N 57°50' E 010°23'510.4
2017-Sep-14 18:30N 57°50' E 010°32'610.3
2017-Sep-14 17:57N 57°49' E 010°42'510.9
2017-Sep-14 17:30N 57°46' E 010°50'6 9.8
2017-Sep-14 16:56N 57°42' E 010°57'511.2
2017-Sep-14 16:30N 57°39' E 011°04'611.1
2017-Sep-14 16:00N 57°35' E 011°11'511.1
2017-Sep-14 15:30N 57°31' E 011°19'510.6
2017-Sep-14 15:00N 57°28' E 011°26'510.5
2017-Sep-14 14:30N 57°23' E 011°29'510.8
2017-Sep-14 14:01N 57°18' E 011°33'610.9
2017-Sep-14 13:30N 57°12' E 011°36'610.8
2017-Sep-14 12:56N 57°07' E 011°40'611.0
2017-Sep-14 12:23N 57°01' E 011°44'710.9
2017-Sep-14 11:46N 56°55' E 011°48'710.8
2017-Sep-14 11:05N 56°48' E 011°52'3 9.8
2017-Sep-14 10:46N 56°45' E 011°53'310.3
2017-Sep-14 10:29N 56°42' E 011°50'611.0
2017-Sep-14 09:56N 56°37' E 011°45'511.1
2017-Sep-14 09:30N 56°32' E 011°41'611.1
2017-Sep-14 09:00N 56°28' E 011°36'66 9.2
2017-Sep-14 01:53N 55°25' E 010°59'712.2
2017-Sep-14 01:19N 55°19' E 011°02'414.7
2017-Sep-14 01:01N 55°15' E 011°05'713.9
2017-Sep-14 00:30N 55°08' E 011°03'714.7
2017-Sep-14 00:01N 55°01' E 010°59'713.7
2017-Sep-13 23:31N 54°55' E 010°52'713.6
2017-Sep-13 23:00N 54°49' E 010°50'714.4
2017-Sep-13 22:30N 54°42' E 010°46'4 8.9
2017-Sep-13 22:00N 54°39' E 010°51'5 9.3
2017-Sep-13 21:30N 54°36' E 010°58'4 8.2
2017-Sep-13 21:00N 54°36' E 011°05'4 8.3
2017-Sep-13 20:30N 54°36' E 011°12'4 8.8
2017-Sep-13 20:00N 54°34' E 011°19'4 9.0
2017-Sep-13 19:30N 54°32' E 011°26'4 8.9
2017-Sep-13 19:00N 54°30' E 011°33'4 8.7
2017-Sep-13 18:30N 54°28' E 011°40'510.4
2017-Sep-13 17:59N 54°26' E 011°48'5 8.8
2017-Sep-13 17:23N 54°26' E 011°57'3 7.0
2017-Sep-13 17:00N 54°26' E 012°02'4 7.7
2017-Sep-13 16:30N 54°26' E 012°09'510.3
2017-Sep-13 16:00N 54°31' E 012°13'510.3
2017-Sep-13 15:30N 54°35' E 012°17'4 6.6
2017-Sep-13 14:54N 54°39' E 012°18'46 9.2
2017-Sep-13 09:55N 54°57' E 013°31'917.0
2017-Sep-13 09:23N 55°00' E 013°45'717.4
2017-Sep-13 09:00N 55°03' E 013°57'611.8
2017-Sep-13 08:30N 55°05' E 014°06'510.0
2017-Sep-13 08:00N 55°09' E 014°11'510.1
2017-Sep-13 07:30N 55°13' E 014°17'510.0
2017-Sep-13 07:00N 55°17' E 014°22'510.5
2017-Sep-13 06:30N 55°21' E 014°28'510.7
2017-Sep-13 06:00N 55°25' E 014°33'510.0
2017-Sep-13 05:30N 55°28' E 014°41'510.1
2017-Sep-13 05:00N 55°30' E 014°48'510.5
2017-Sep-13 04:30N 55°33' E 014°57'510.9
2017-Sep-13 04:00N 55°35' E 015°05'510.8
2017-Sep-13 03:31N 55°38' E 015°14'510.6
2017-Sep-13 03:00N 55°39' E 015°23'510.7
2017-Sep-13 02:30N 55°40' E 015°32'510.8
2017-Sep-13 02:00N 55°42' E 015°41'510.6
2017-Sep-13 01:30N 55°43' E 015°50'510.5
2017-Sep-13 01:00N 55°44' E 015°59'510.6
2017-Sep-13 00:30N 55°46' E 016°08'510.4
2017-Sep-13 00:00N 55°48' E 016°17'510.1
2017-Sep-12 23:30N 55°48' E 016°26'510.3
2017-Sep-12 23:00N 55°49' E 016°35'510.2
2017-Sep-12 22:30N 55°51' E 016°44'510.1
2017-Sep-12 22:00N 55°52' E 016°53'510.1
2017-Sep-12 21:28N 55°54' E 017°02'  
Track history (hours):
 
Tides and Currents Weather Stations Pressure Air Temp Water Temp Dewpoint Dewpoint Depression Visibility Wind Speed Wind Dir Waves Ship Positions

Maersk Nimes

Last reported at 2017-Sep-22 15:00 UTC. Time now 2017-Sep-23 13:01 UTC.
Position N 43°30' W 016°54'.

Length 210 m; draft 11.4 m.

Type: Cargo ship. MMSI: 477559200.

Wind from 050 at 36 knots

Barometer 1017.5 mb
Air temperature 21.0 ° C
Visibility: greater than 10.8 NM
Dewpoint 14.2 ° C
Water temperature 18.2 ° C

Date/timePositionNaut miles runAvg speedWind from/ knotsBaromVisibWave heightAir tempDewpointWater temp
2017-Sep-22 15:00N 43°30' W 016°54'21614.4 050 / 361017.510.8 21.014.218.2
2017-Sep-22 00:00N 45°48' W 013°00'41815.8 220 / 221021.010.8 18.012.716.0
2017-Sep-20 21:31N 49°42' W 004°25'013.5
2017-Sep-20 21:30N 49°42' W 004°25'916.1
2017-Sep-20 20:57N 49°45' W 004°12'1015.4
2017-Sep-20 20:19N 49°48' W 003°57'515.3
2017-Sep-20 20:00N 49°49' W 003°50'714.9
2017-Sep-20 19:30N 49°52' W 003°40'714.4
2017-Sep-20 19:00N 49°53' W 003°29'714.4
2017-Sep-20 18:30N 49°55' W 003°18'714.5
2017-Sep-20 18:00N 49°56' W 003°07'714.7
2017-Sep-20 17:30N 49°59' W 002°56'815.5
2017-Sep-20 17:00N 50°01' W 002°44'1916.9
2017-Sep-20 15:52N 50°06' W 002°15'718.5
2017-Sep-20 15:30N 50°08' W 002°05'1019.4
2017-Sep-20 15:00N 50°10' W 001°51'2019.8
2017-Sep-20 14:01N 50°15' W 001°21'1119.8
2017-Sep-20 13:26N 50°19' W 001°04'918.9
2017-Sep-20 12:58N 50°21' W 000°51'918.0
2017-Sep-20 12:28N 50°24' W 000°37'817.5
2017-Sep-20 12:00N 50°26' W 000°25'816.8
2017-Sep-20 11:30N 50°29' W 000°12'816.1
2017-Sep-20 11:01N 50°31' W 000°00'815.6
2017-Sep-20 10:30N 50°33' E 000°12'714.9
2017-Sep-20 10:00N 50°35' E 000°23'714.5
2017-Sep-20 09:30N 50°36' E 000°34'815.1
2017-Sep-20 09:00N 50°41' E 000°44'815.6
2017-Sep-20 08:30N 50°45' E 000°54'816.6
2017-Sep-20 08:01N 50°51' E 001°03'918.2
2017-Sep-20 07:30N 50°58' E 001°13'1019.3
2017-Sep-20 07:00N 51°03' E 001°26'918.5
2017-Sep-20 06:30N 51°08' E 001°38'918.9
2017-Sep-20 06:00N 51°15' E 001°48'918.0
2017-Sep-20 05:30N 51°23' E 001°56'714.4
2017-Sep-20 05:00N 51°23' E 002°07'816.6
2017-Sep-20 04:30N 51°21' E 002°20'816.7
2017-Sep-20 04:01N 51°23' E 002°33'815.3
2017-Sep-20 03:30N 51°22' E 002°45'611.6
2017-Sep-20 03:01N 51°23' E 002°54'714.8
2017-Sep-20 02:31N 51°24' E 003°06'815.5
2017-Sep-20 02:01N 51°24' E 003°18'815.4
2017-Sep-20 01:30N 51°25' E 003°30'510.4
2017-Sep-20 01:00N 51°26' E 003°38'611.1
2017-Sep-20 00:30N 51°22' E 003°44'612.2
2017-Sep-20 00:00N 51°22' E 003°54'612.1
2017-Sep-19 23:31N 51°26' E 004°01'611.8
2017-Sep-19 23:01N 51°22' E 004°08'4 8.2
2017-Sep-19 22:30N 51°21' E 004°14'1 2.5
2017-Sep-19 22:01N 51°21' E 004°16'0 0.0
2017-Sep-19 21:30N 51°21' E 004°16'0 0.0
2017-Sep-19 20:59N 51°21' E 004°16'0 0.0
2017-Sep-19 20:30N 51°21' E 004°16'0 0.0
2017-Sep-19 20:00N 51°21' E 004°16'0 0.0
2017-Sep-19 19:31N 51°21' E 004°16'0 0.0
2017-Sep-19 18:59N 51°21' E 004°16'0 0.0
2017-Sep-19 18:30N 51°21' E 004°16'0 0.0
2017-Sep-19 18:00N 51°21' E 004°16'0 0.0
2017-Sep-19 17:30N 51°21' E 004°16'0 0.0
2017-Sep-19 17:00N 51°21' E 004°16'0 0.0
2017-Sep-19 16:29N 51°21' E 004°16'0 0.0
2017-Sep-19 16:00N 51°21' E 004°16'0 0.0
2017-Sep-19 15:30N 51°21' E 004°16'0 0.0
2017-Sep-19 14:59N 51°21' E 004°16'0 0.0
2017-Sep-19 14:29N 51°21' E 004°16'0 0.0
2017-Sep-19 14:00N 51°21' E 004°16'0 0.0
2017-Sep-19 13:30N 51°21' E 004°16'0 0.0
2017-Sep-19 13:01N 51°21' E 004°16'0 0.0
2017-Sep-19 12:31N 51°21' E 004°16'0 0.0
2017-Sep-19 12:01N 51°21' E 004°16'0 0.0
2017-Sep-19 11:29N 51°21' E 004°16'0 0.0
2017-Sep-19 10:59N 51°21' E 004°16'0 0.0
2017-Sep-19 10:29N 51°21' E 004°16'0 0.0
2017-Sep-19 10:00N 51°21' E 004°16'1 1.8
2017-Sep-19 09:30N 51°21' E 004°15'4 7.7
2017-Sep-19 09:00N 51°22' E 004°09'510.9
2017-Sep-19 08:31N 51°25' E 004°02'713.6
2017-Sep-19 08:00N 51°21' E 003°53'714.4
2017-Sep-19 07:31N 51°24' E 003°43'5 9.8
2017-Sep-19 07:00N 51°26' E 003°35'3 6.1
2017-Sep-19 06:30N 51°25' E 003°30'714.2
2017-Sep-19 06:01N 51°24' E 003°19'815.4
2017-Sep-19 05:30N 51°24' E 003°07'611.5
2017-Sep-19 05:00N 51°28' E 003°01'918.6
2017-Sep-19 04:30N 51°36' E 003°10'816.5
2017-Sep-19 04:00N 51°44' E 003°13'4 7.1
2017-Sep-19 03:31N 51°47' E 003°15'510.2
2017-Sep-19 02:59N 51°52' E 003°18'510.8
2017-Sep-19 02:30N 51°57' E 003°20'510.6
2017-Sep-19 01:59N 52°02' E 003°23'611.4
2017-Sep-19 01:29N 52°04' E 003°32'511.4
2017-Sep-19 01:00N 52°04' E 003°41'510.9
2017-Sep-19 00:30N 52°04' E 003°50'3 6.5
2017-Sep-19 00:00N 52°02' E 003°54'4 7.6
2017-Sep-18 23:30N 52°01' E 003°59'5 9.3
2017-Sep-18 23:00N 51°58' E 004°05'3 5.8
2017-Sep-18 22:30N 51°59' E 004°01'1 2.6
2017-Sep-18 21:58N 51°57' E 004°00'0 0.1
2017-Sep-18 21:28N 51°57' E 004°00'0 0.0
2017-Sep-18 20:58N 51°57' E 004°00'0 0.0
2017-Sep-18 20:28N 51°57' E 004°00'0 0.0
2017-Sep-18 19:55N 51°57' E 004°00'0 0.0
2017-Sep-18 19:28N 51°57' E 004°00'0 0.0
2017-Sep-18 18:58N 51°57' E 004°00'0 0.0
2017-Sep-18 18:28N 51°57' E 004°00'0 0.1
2017-Sep-18 17:58N 51°57' E 004°00'0 0.1
2017-Sep-18 17:28N 51°57' E 004°00'0 0.0
2017-Sep-18 16:58N 51°57' E 004°00'0 0.0
2017-Sep-18 16:28N 51°57' E 004°00'0 0.0
2017-Sep-18 15:58N 51°57' E 004°00'0 0.0
2017-Sep-18 15:28N 51°57' E 004°00'0 0.0
2017-Sep-18 14:58N 51°57' E 004°00'0 0.0
2017-Sep-18 14:28N 51°57' E 004°00'0 0.1
2017-Sep-18 14:00N 51°57' E 004°00'1 2.2
2017-Sep-18 13:30N 51°58' E 003°60'3 6.6
2017-Sep-18 13:00N 51°58' E 004°05'611.6
2017-Sep-18 12:30N 52°01' E 003°57'510.7
2017-Sep-18 12:00N 52°01' E 003°48'611.3
2017-Sep-18 11:30N 52°06' E 003°47'611.2
2017-Sep-18 11:00N 52°12' E 003°44'1 1.2
2017-Sep-18 10:30N 52°12' E 003°43'2 3.3
2017-Sep-18 10:00N 52°13' E 003°46'714.7
2017-Sep-18 09:30N 52°20' E 003°48'1121.3
2017-Sep-18 09:00N 52°30' E 003°51'1121.7
2017-Sep-18 08:30N 52°41' E 003°55'1421.7
2017-Sep-18 07:52N 52°55' E 003°59'1720.9
2017-Sep-18 07:02N 53°07' E 004°20'121.3
2017-Sep-18 07:00N 53°07' E 004°21'1720.7
2017-Sep-18 06:10N 53°23' E 004°33'320.5
2017-Sep-18 06:00N 53°26' E 004°35'918.5
2017-Sep-18 05:30N 53°31' E 004°48'1019.6
2017-Sep-18 05:00N 53°34' E 005°04'1019.4
2017-Sep-18 04:30N 53°37' E 005°19'1019.4
2017-Sep-18 04:00N 53°41' E 005°35'7620.5
2017-Sep-18 00:16N 53°58' E 007°41'520.0
2017-Sep-18 00:00N 53°54' E 007°45'815.0
2017-Sep-17 23:30N 53°52' E 007°57'918.1
2017-Sep-17 23:00N 53°46' E 008°10'918.6
2017-Sep-17 22:30N 53°40' E 008°22'714.0
2017-Sep-17 22:00N 53°36' E 008°31'0 0.7
2017-Sep-17 21:29N 53°36' E 008°31'0 0.0
2017-Sep-17 20:59N 53°36' E 008°31'0 0.0
2017-Sep-17 20:29N 53°36' E 008°31'0 0.0
2017-Sep-17 19:59N 53°36' E 008°31'0 0.0
2017-Sep-17 19:29N 53°36' E 008°31'0 0.0
2017-Sep-17 19:01N 53°36' E 008°31'0 0.0
2017-Sep-17 18:30N 53°36' E 008°31'0 0.0
2017-Sep-17 17:57N 53°36' E 008°31'0 0.0
2017-Sep-17 17:30N 53°36' E 008°31'0 0.0
2017-Sep-17 16:57N 53°36' E 008°31'0 0.0
2017-Sep-17 16:30N 53°36' E 008°31'0 0.0
2017-Sep-17 15:57N 53°36' E 008°31'0 0.0
2017-Sep-17 15:30N 53°36' E 008°31'0 0.0
2017-Sep-17 15:00N 53°36' E 008°31'0 0.0
2017-Sep-17 14:30N 53°36' E 008°31'0 0.0
2017-Sep-17 14:00N 53°36' E 008°31'0 0.0
2017-Sep-17 13:30N 53°36' E 008°31'0 0.0
2017-Sep-17 13:00N 53°36' E 008°31'0 0.0
2017-Sep-17 12:30N 53°36' E 008°31'0 0.1
2017-Sep-17 12:00N 53°35' E 008°31'0 0.0
2017-Sep-17 11:30N 53°36' E 008°31'0 0.0
2017-Sep-17 11:00N 53°36' E 008°31'0 0.0
2017-Sep-17 10:30N 53°36' E 008°31'0 0.0
2017-Sep-17 10:00N 53°36' E 008°31'0 0.0
2017-Sep-17 09:30N 53°36' E 008°31'0 0.0
2017-Sep-17 09:00N 53°36' E 008°31'0 0.0
2017-Sep-17 08:30N 53°36' E 008°31'0 0.0
2017-Sep-17 08:00N 53°36' E 008°31'0 0.0
2017-Sep-17 07:30N 53°36' E 008°31'0 0.0
2017-Sep-17 07:00N 53°36' E 008°31'0 0.0
2017-Sep-17 06:30N 53°36' E 008°31'0 0.0
2017-Sep-17 06:00N 53°36' E 008°31'0 0.0
2017-Sep-17 05:30N 53°36' E 008°31'0 0.0
2017-Sep-17 05:00N 53°36' E 008°31'0 0.0
2017-Sep-17 04:30N 53°36' E 008°31'0 0.0
2017-Sep-17 04:00N 53°36' E 008°31'0 0.0
2017-Sep-17 03:30N 53°36' E 008°31'0 0.0
2017-Sep-17 03:00N 53°36' E 008°31'0 0.0
2017-Sep-17 02:30N 53°36' E 008°31'0 0.0
2017-Sep-17 02:00N 53°36' E 008°31'0 0.0
2017-Sep-17 01:30N 53°36' E 008°31'0 0.0
2017-Sep-17 01:00N 53°36' E 008°31'0 0.0
2017-Sep-17 00:30N 53°36' E 008°31'0 0.0
2017-Sep-17 00:00N 53°36' E 008°31'0 0.0
2017-Sep-16 23:30N 53°36' E 008°31'0 0.0
2017-Sep-16 23:00N 53°36' E 008°31'0 0.0
2017-Sep-16 22:30N 53°36' E 008°31'0 0.9
2017-Sep-16 22:00N 53°36' E 008°31'5 9.8
2017-Sep-16 21:30N 53°39' E 008°24'815.0
2017-Sep-16 21:00N 53°44' E 008°15'612.9
2017-Sep-16 20:30N 53°49' E 008°07'715.0
2017-Sep-16 20:00N 53°51' E 007°56'612.6
2017-Sep-16 19:30N 53°53' E 007°45'2 4.3
2017-Sep-16 19:00N 53°55' E 007°46'0 0.3
2017-Sep-16 18:28N 53°55' E 007°46'0 0.1
2017-Sep-16 17:55N 53°55' E 007°46'0 0.0
2017-Sep-16 17:28N 53°55' E 007°46'0 0.0
2017-Sep-16 16:58N 53°55' E 007°46'0 0.0
2017-Sep-16 16:28N 53°55' E 007°46'0 0.0
2017-Sep-16 15:58N 53°55' E 007°46'0 0.1
2017-Sep-16 15:25N 53°55' E 007°46'0 0.1
2017-Sep-16 14:58N 53°55' E 007°46'0 0.0
2017-Sep-16 14:28N 53°55' E 007°46'0 0.0
2017-Sep-16 13:58N 53°55' E 007°46'0 0.0
2017-Sep-16 13:28N 53°55' E 007°46'0 0.1
2017-Sep-16 10:58N 53°55' E 007°46'0 0.1
2017-Sep-16 10:16N 53°55' E 007°46'56 3.6
2017-Sep-15 18:32N 54°43' E 006°57'011.5
2017-Sep-15 18:30N 54°43' E 006°57'611.4
2017-Sep-15 17:59N 54°47' E 006°49'611.7
2017-Sep-15 17:30N 54°51' E 006°42'611.8
2017-Sep-15 17:00N 54°55' E 006°34'611.2
2017-Sep-15 16:30N 55°01' E 006°33'611.6
2017-Sep-15 16:00N 55°06' E 006°33'611.7
2017-Sep-15 15:31N 55°12' E 006°33'611.6
2017-Sep-15 15:00N 55°18' E 006°34'611.7
2017-Sep-15 14:30N 55°24' E 006°34'611.8
2017-Sep-15 14:00N 55°30' E 006°35'15810.2
2017-Sep-14 22:32N 57°43' E 009°10'010.9
2017-Sep-14 22:30N 57°43' E 009°11'3511.2
2017-Sep-14 19:23N 57°50' E 010°15'510.6
2017-Sep-14 18:58N 57°50' E 010°23'510.4
2017-Sep-14 18:30N 57°50' E 010°32'610.3
2017-Sep-14 17:57N 57°49' E 010°42'510.9
2017-Sep-14 17:30N 57°46' E 010°50'6 9.8
2017-Sep-14 16:56N 57°42' E 010°57'511.2
2017-Sep-14 16:30N 57°39' E 011°04'611.1
2017-Sep-14 16:00N 57°35' E 011°11'511.1
2017-Sep-14 15:30N 57°31' E 011°19'510.6
2017-Sep-14 15:00N 57°28' E 011°26'510.5
2017-Sep-14 14:30N 57°23' E 011°29'510.8
2017-Sep-14 14:01N 57°18' E 011°33'610.9
2017-Sep-14 13:30N 57°12' E 011°36'610.8
2017-Sep-14 12:56N 57°07' E 011°40'611.0
2017-Sep-14 12:23N 57°01' E 011°44'710.9
2017-Sep-14 11:46N 56°55' E 011°48'710.8
2017-Sep-14 11:05N 56°48' E 011°52'3 9.8
2017-Sep-14 10:46N 56°45' E 011°53'310.3
2017-Sep-14 10:29N 56°42' E 011°50'611.0
2017-Sep-14 09:56N 56°37' E 011°45'511.1
2017-Sep-14 09:30N 56°32' E 011°41'611.1
2017-Sep-14 09:00N 56°28' E 011°36'66 9.2
2017-Sep-14 01:53N 55°25' E 010°59'712.2
2017-Sep-14 01:19N 55°19' E 011°02'414.7
2017-Sep-14 01:01N 55°15' E 011°05'713.9
2017-Sep-14 00:30N 55°08' E 011°03'714.7
2017-Sep-14 00:01N 55°01' E 010°59'713.7
2017-Sep-13 23:31N 54°55' E 010°52'713.6
2017-Sep-13 23:00N 54°49' E 010°50'714.4
2017-Sep-13 22:30N 54°42' E 010°46'4 8.9
2017-Sep-13 22:00N 54°39' E 010°51'5 9.3
2017-Sep-13 21:30N 54°36' E 010°58'4 8.2
2017-Sep-13 21:00N 54°36' E 011°05'4 8.3
2017-Sep-13 20:30N 54°36' E 011°12'4 8.8
2017-Sep-13 20:00N 54°34' E 011°19'4 9.0
2017-Sep-13 19:30N 54°32' E 011°26'4 8.9
2017-Sep-13 19:00N 54°30' E 011°33'4 8.7
2017-Sep-13 18:30N 54°28' E 011°40'510.4
2017-Sep-13 17:59N 54°26' E 011°48'5 8.8
2017-Sep-13 17:23N 54°26' E 011°57'3 7.0
2017-Sep-13 17:00N 54°26' E 012°02'4 7.7
2017-Sep-13 16:30N 54°26' E 012°09'510.3
2017-Sep-13 16:00N 54°31' E 012°13'510.3
2017-Sep-13 15:30N 54°35' E 012°17'4 6.6
2017-Sep-13 14:54N 54°39' E 012°18'46 9.2
2017-Sep-13 09:55N 54°57' E 013°31'917.0
2017-Sep-13 09:23N 55°00' E 013°45'717.4
2017-Sep-13 09:00N 55°03' E 013°57'611.8
2017-Sep-13 08:30N 55°05' E 014°06'510.0
2017-Sep-13 08:00N 55°09' E 014°11'510.1
2017-Sep-13 07:30N 55°13' E 014°17'510.0
2017-Sep-13 07:00N 55°17' E 014°22'510.5
2017-Sep-13 06:30N 55°21' E 014°28'510.7
2017-Sep-13 06:00N 55°25' E 014°33'510.0
2017-Sep-13 05:30N 55°28' E 014°41'510.1
2017-Sep-13 05:00N 55°30' E 014°48'510.5
2017-Sep-13 04:30N 55°33' E 014°57'510.9
2017-Sep-13 04:00N 55°35' E 015°05'510.8
2017-Sep-13 03:31N 55°38' E 015°14'510.6
2017-Sep-13 03:00N 55°39' E 015°23'510.7
2017-Sep-13 02:30N 55°40' E 015°32'510.8
2017-Sep-13 02:00N 55°42' E 015°41'510.6
2017-Sep-13 01:30N 55°43' E 015°50'510.5
2017-Sep-13 01:00N 55°44' E 015°59'510.6
2017-Sep-13 00:30N 55°46' E 016°08'510.4
2017-Sep-13 00:00N 55°48' E 016°17'510.1
2017-Sep-12 23:30N 55°48' E 016°26'510.3
2017-Sep-12 23:00N 55°49' E 016°35'510.2
2017-Sep-12 22:30N 55°51' E 016°44'510.1
2017-Sep-12 22:00N 55°52' E 016°53'510.1
2017-Sep-12 21:28N 55°54' E 017°02'  

Dump ship's entire track history